sensor_id;sensor_type;location;lat;lon;timestamp;P1;durP1;ratioP1;P2;durP2;ratioP2
14096;SDS011;7125;48.106;11.544;2023-11-22T00:00:48;11.00;;;7.87;;
14096;SDS011;7125;48.106;11.544;2023-11-22T00:03:15;12.07;;;7.87;;
14096;SDS011;7125;48.106;11.544;2023-11-22T00:05:43;9.47;;;8.40;;
14096;SDS011;7125;48.106;11.544;2023-11-22T00:08:11;12.17;;;8.27;;
14096;SDS011;7125;48.106;11.544;2023-11-22T00:10:38;10.70;;;7.97;;
14096;SDS011;7125;48.106;11.544;2023-11-22T00:13:05;10.73;;;7.70;;
14096;SDS011;7125;48.106;11.544;2023-11-22T00:15:32;11.63;;;9.57;;
14096;SDS011;7125;48.106;11.544;2023-11-22T00:18:01;10.10;;;8.17;;
14096;SDS011;7125;48.106;11.544;2023-11-22T00:20:28;13.77;;;8.10;;
14096;SDS011;7125;48.106;11.544;2023-11-22T00:22:57;10.83;;;7.83;;
14096;SDS011;7125;48.106;11.544;2023-11-22T00:25:24;9.67;;;7.80;;
14096;SDS011;7125;48.106;11.544;2023-11-22T00:27:50;10.17;;;7.10;;
14096;SDS011;7125;48.106;11.544;2023-11-22T00:30:17;8.83;;;7.93;;
14096;SDS011;7125;48.106;11.544;2023-11-22T00:32:44;11.30;;;8.73;;
14096;SDS011;7125;48.106;11.544;2023-11-22T00:35:11;10.33;;;7.80;;
14096;SDS011;7125;48.106;11.544;2023-11-22T00:37:38;13.67;;;7.60;;
14096;SDS011;7125;48.106;11.544;2023-11-22T00:40:07;14.47;;;9.23;;
14096;SDS011;7125;48.106;11.544;2023-11-22T00:42:37;12.10;;;8.10;;
14096;SDS011;7125;48.106;11.544;2023-11-22T00:45:05;13.30;;;8.23;;
14096;SDS011;7125;48.106;11.544;2023-11-22T00:47:33;11.40;;;7.83;;
14096;SDS011;7125;48.106;11.544;2023-11-22T00:50:00;12.00;;;7.50;;
14096;SDS011;7125;48.106;11.544;2023-11-22T00:52:29;11.27;;;8.27;;
14096;SDS011;7125;48.106;11.544;2023-11-22T00:54:56;11.03;;;8.83;;
14096;SDS011;7125;48.106;11.544;2023-11-22T00:57:25;10.00;;;8.93;;
14096;SDS011;7125;48.106;11.544;2023-11-22T00:59:52;13.63;;;8.30;;
14096;SDS011;7125;48.106;11.544;2023-11-22T01:02:19;13.60;;;8.10;;
14096;SDS011;7125;48.106;11.544;2023-11-22T01:04:48;11.03;;;9.43;;
14096;SDS011;7125;48.106;11.544;2023-11-22T01:07:15;11.63;;;8.73;;
14096;SDS011;7125;48.106;11.544;2023-11-22T01:09:42;11.70;;;8.87;;
14096;SDS011;7125;48.106;11.544;2023-11-22T01:12:09;8.27;;;7.27;;
14096;SDS011;7125;48.106;11.544;2023-11-22T01:14:38;11.43;;;8.87;;
14096;SDS011;7125;48.106;11.544;2023-11-22T01:17:05;10.13;;;7.57;;
14096;SDS011;7125;48.106;11.544;2023-11-22T01:19:34;9.93;;;7.57;;
14096;SDS011;7125;48.106;11.544;2023-11-22T01:22:01;11.70;;;8.53;;
14096;SDS011;7125;48.106;11.544;2023-11-22T01:24:27;9.60;;;7.17;;
14096;SDS011;7125;48.106;11.544;2023-11-22T01:26:54;13.00;;;8.57;;
14096;SDS011;7125;48.106;11.544;2023-11-22T01:29:23;11.13;;;8.00;;
14096;SDS011;7125;48.106;11.544;2023-11-22T01:31:51;12.87;;;8.37;;
14096;SDS011;7125;48.106;11.544;2023-11-22T01:34:18;10.43;;;7.70;;
14096;SDS011;7125;48.106;11.544;2023-11-22T01:36:45;10.17;;;7.63;;
14096;SDS011;7125;48.106;11.544;2023-11-22T01:39:12;10.87;;;7.53;;
14096;SDS011;7125;48.106;11.544;2023-11-22T01:41:39;10.00;;;8.10;;
14096;SDS011;7125;48.106;11.544;2023-11-22T01:44:07;8.73;;;6.77;;
14096;SDS011;7125;48.106;11.544;2023-11-22T01:46:34;9.77;;;7.33;;
14096;SDS011;7125;48.106;11.544;2023-11-22T01:49:02;9.60;;;8.30;;
14096;SDS011;7125;48.106;11.544;2023-11-22T01:51:29;9.90;;;7.70;;
14096;SDS011;7125;48.106;11.544;2023-11-22T01:53:57;11.43;;;7.90;;
14096;SDS011;7125;48.106;11.544;2023-11-22T01:56:26;9.87;;;8.13;;
14096;SDS011;7125;48.106;11.544;2023-11-22T01:58:54;11.50;;;7.60;;
14096;SDS011;7125;48.106;11.544;2023-11-22T02:01:22;9.00;;;7.33;;
14096;SDS011;7125;48.106;11.544;2023-11-22T02:03:50;9.77;;;8.00;;
14096;SDS011;7125;48.106;11.544;2023-11-22T02:06:19;12.53;;;7.57;;
14096;SDS011;7125;48.106;11.544;2023-11-22T02:08:47;12.70;;;7.67;;
14096;SDS011;7125;48.106;11.544;2023-11-22T02:11:16;10.67;;;8.00;;
14096;SDS011;7125;48.106;11.544;2023-11-22T02:13:47;11.33;;;7.53;;
14096;SDS011;7125;48.106;11.544;2023-11-22T02:16:14;11.00;;;8.30;;
14096;SDS011;7125;48.106;11.544;2023-11-22T02:18:42;10.47;;;8.27;;
14096;SDS011;7125;48.106;11.544;2023-11-22T02:21:10;10.17;;;8.27;;
14096;SDS011;7125;48.106;11.544;2023-11-22T02:23:39;8.20;;;6.10;;
14096;SDS011;7125;48.106;11.544;2023-11-22T02:26:07;9.60;;;7.30;;
14096;SDS011;7125;48.106;11.544;2023-11-22T02:28:34;7.87;;;5.77;;
14096;SDS011;7125;48.106;11.544;2023-11-22T02:31:01;6.63;;;5.87;;
14096;SDS011;7125;48.106;11.544;2023-11-22T02:33:28;4.87;;;4.33;;
14096;SDS011;7125;48.106;11.544;2023-11-22T02:35:55;5.50;;;3.80;;
14096;SDS011;7125;48.106;11.544;2023-11-22T02:38:22;5.10;;;3.93;;
14096;SDS011;7125;48.106;11.544;2023-11-22T02:40:52;4.33;;;3.67;;
14096;SDS011;7125;48.106;11.544;2023-11-22T02:43:19;4.67;;;3.80;;
14096;SDS011;7125;48.106;11.544;2023-11-22T02:45:48;4.03;;;3.63;;
14096;SDS011;7125;48.106;11.544;2023-11-22T02:48:15;3.17;;;2.87;;
14096;SDS011;7125;48.106;11.544;2023-11-22T02:50:42;3.60;;;2.80;;
14096;SDS011;7125;48.106;11.544;2023-11-22T02:53:09;3.03;;;2.33;;
14096;SDS011;7125;48.106;11.544;2023-11-22T02:55:37;4.17;;;3.23;;
14096;SDS011;7125;48.106;11.544;2023-11-22T02:58:06;3.33;;;3.03;;
14096;SDS011;7125;48.106;11.544;2023-11-22T03:00:33;3.00;;;2.67;;
14096;SDS011;7125;48.106;11.544;2023-11-22T03:03:00;3.63;;;2.63;;
14096;SDS011;7125;48.106;11.544;2023-11-22T03:05:29;4.20;;;3.30;;
14096;SDS011;7125;48.106;11.544;2023-11-22T03:07:56;3.67;;;2.87;;
14096;SDS011;7125;48.106;11.544;2023-11-22T03:10:24;4.83;;;3.67;;
14096;SDS011;7125;48.106;11.544;2023-11-22T03:12:52;4.97;;;3.30;;
14096;SDS011;7125;48.106;11.544;2023-11-22T03:15:21;4.07;;;3.13;;
14096;SDS011;7125;48.106;11.544;2023-11-22T03:17:48;4.03;;;2.80;;
14096;SDS011;7125;48.106;11.544;2023-11-22T03:20:15;3.70;;;2.97;;
14096;SDS011;7125;48.106;11.544;2023-11-22T03:22:42;3.83;;;3.37;;
14096;SDS011;7125;48.106;11.544;2023-11-22T03:25:10;3.20;;;2.47;;
14096;SDS011;7125;48.106;11.544;2023-11-22T03:27:37;2.37;;;2.10;;
14096;SDS011;7125;48.106;11.544;2023-11-22T03:30:05;3.63;;;2.63;;
14096;SDS011;7125;48.106;11.544;2023-11-22T03:32:38;3.70;;;3.10;;
14096;SDS011;7125;48.106;11.544;2023-11-22T03:35:05;2.77;;;2.13;;
14096;SDS011;7125;48.106;11.544;2023-11-22T03:37:34;4.73;;;3.67;;
14096;SDS011;7125;48.106;11.544;2023-11-22T03:40:02;3.07;;;2.73;;
14096;SDS011;7125;48.106;11.544;2023-11-22T03:42:30;4.67;;;3.00;;
14096;SDS011;7125;48.106;11.544;2023-11-22T03:44:57;3.63;;;2.83;;
14096;SDS011;7125;48.106;11.544;2023-11-22T03:47:25;4.80;;;2.80;;
14096;SDS011;7125;48.106;11.544;2023-11-22T03:49:56;4.40;;;2.97;;
14096;SDS011;7125;48.106;11.544;2023-11-22T03:52:23;4.17;;;3.73;;
14096;SDS011;7125;48.106;11.544;2023-11-22T03:54:50;4.03;;;3.00;;
14096;SDS011;7125;48.106;11.544;2023-11-22T03:57:17;5.23;;;3.30;;
14096;SDS011;7125;48.106;11.544;2023-11-22T03:59:44;4.67;;;4.07;;
14096;SDS011;7125;48.106;11.544;2023-11-22T04:02:11;3.80;;;2.83;;
14096;SDS011;7125;48.106;11.544;2023-11-22T04:04:38;4.33;;;3.23;;
14096;SDS011;7125;48.106;11.544;2023-11-22T04:07:07;3.93;;;2.80;;
14096;SDS011;7125;48.106;11.544;2023-11-22T04:09:34;4.73;;;3.10;;
14096;SDS011;7125;48.106;11.544;2023-11-22T04:12:01;5.13;;;3.73;;
14096;SDS011;7125;48.106;11.544;2023-11-22T04:14:29;4.97;;;4.17;;
14096;SDS011;7125;48.106;11.544;2023-11-22T04:16:56;3.37;;;3.07;;
14096;SDS011;7125;48.106;11.544;2023-11-22T04:19:23;2.93;;;2.60;;
14096;SDS011;7125;48.106;11.544;2023-11-22T04:21:49;3.80;;;2.87;;
14096;SDS011;7125;48.106;11.544;2023-11-22T04:24:18;4.10;;;2.90;;
14096;SDS011;7125;48.106;11.544;2023-11-22T04:26:45;3.77;;;3.40;;
14096;SDS011;7125;48.106;11.544;2023-11-22T04:29:12;4.77;;;3.63;;
14096;SDS011;7125;48.106;11.544;2023-11-22T04:31:39;5.63;;;4.00;;
14096;SDS011;7125;48.106;11.544;2023-11-22T04:34:05;4.53;;;3.70;;
14096;SDS011;7125;48.106;11.544;2023-11-22T04:36:32;4.13;;;3.70;;
14096;SDS011;7125;48.106;11.544;2023-11-22T04:38:59;5.73;;;4.03;;
14096;SDS011;7125;48.106;11.544;2023-11-22T04:41:28;4.20;;;3.57;;
14096;SDS011;7125;48.106;11.544;2023-11-22T04:43:55;5.00;;;3.23;;
14096;SDS011;7125;48.106;11.544;2023-11-22T04:46:22;3.30;;;2.57;;
14096;SDS011;7125;48.106;11.544;2023-11-22T04:48:49;6.20;;;3.47;;
14096;SDS011;7125;48.106;11.544;2023-11-22T04:51:16;3.13;;;2.83;;
14096;SDS011;7125;48.106;11.544;2023-11-22T04:53:44;5.00;;;3.43;;
14096;SDS011;7125;48.106;11.544;2023-11-22T04:56:11;3.17;;;2.87;;
14096;SDS011;7125;48.106;11.544;2023-11-22T04:58:39;5.33;;;3.50;;
14096;SDS011;7125;48.106;11.544;2023-11-22T05:01:06;3.80;;;2.70;;
14096;SDS011;7125;48.106;11.544;2023-11-22T05:03:35;3.23;;;2.73;;
14096;SDS011;7125;48.106;11.544;2023-11-22T05:06:02;3.70;;;3.00;;
14096;SDS011;7125;48.106;11.544;2023-11-22T05:08:29;3.97;;;3.20;;
14096;SDS011;7125;48.106;11.544;2023-11-22T05:10:56;4.33;;;3.07;;
14096;SDS011;7125;48.106;11.544;2023-11-22T05:13:24;3.23;;;2.37;;
14096;SDS011;7125;48.106;11.544;2023-11-22T05:15:52;4.00;;;3.47;;
14096;SDS011;7125;48.106;11.544;2023-11-22T05:18:19;3.20;;;2.90;;
14096;SDS011;7125;48.106;11.544;2023-11-22T05:20:47;4.97;;;3.57;;
14096;SDS011;7125;48.106;11.544;2023-11-22T05:23:14;4.17;;;3.40;;
14096;SDS011;7125;48.106;11.544;2023-11-22T05:25:41;5.30;;;3.43;;
14096;SDS011;7125;48.106;11.544;2023-11-22T05:28:09;2.87;;;2.57;;
14096;SDS011;7125;48.106;11.544;2023-11-22T05:30:36;5.03;;;3.57;;
14096;SDS011;7125;48.106;11.544;2023-11-22T05:33:04;4.63;;;3.90;;
14096;SDS011;7125;48.106;11.544;2023-11-22T05:35:31;5.40;;;3.47;;
14096;SDS011;7125;48.106;11.544;2023-11-22T05:37:58;4.37;;;3.67;;
14096;SDS011;7125;48.106;11.544;2023-11-22T05:40:25;4.20;;;3.10;;
14096;SDS011;7125;48.106;11.544;2023-11-22T05:42:52;4.03;;;3.47;;
14096;SDS011;7125;48.106;11.544;2023-11-22T05:45:19;4.47;;;3.13;;
14096;SDS011;7125;48.106;11.544;2023-11-22T05:47:46;5.27;;;3.60;;
14096;SDS011;7125;48.106;11.544;2023-11-22T05:50:14;3.70;;;3.10;;
14096;SDS011;7125;48.106;11.544;2023-11-22T05:52:42;4.23;;;2.83;;
14096;SDS011;7125;48.106;11.544;2023-11-22T05:55:09;3.57;;;2.80;;
14096;SDS011;7125;48.106;11.544;2023-11-22T05:57:39;2.50;;;2.30;;
14096;SDS011;7125;48.106;11.544;2023-11-22T06:00:06;3.80;;;2.27;;
14096;SDS011;7125;48.106;11.544;2023-11-22T06:02:34;3.50;;;2.60;;
14096;SDS011;7125;48.106;11.544;2023-11-22T06:05:01;4.37;;;2.90;;
14096;SDS011;7125;48.106;11.544;2023-11-22T06:07:30;3.13;;;2.73;;
14096;SDS011;7125;48.106;11.544;2023-11-22T06:09:57;3.93;;;2.97;;
14096;SDS011;7125;48.106;11.544;2023-11-22T06:12:24;3.77;;;2.70;;
14096;SDS011;7125;48.106;11.544;2023-11-22T06:14:51;3.43;;;3.10;;
14096;SDS011;7125;48.106;11.544;2023-11-22T06:17:18;4.07;;;2.67;;
14096;SDS011;7125;48.106;11.544;2023-11-22T06:19:45;3.97;;;3.13;;
14096;SDS011;7125;48.106;11.544;2023-11-22T06:22:12;3.30;;;2.70;;
14096;SDS011;7125;48.106;11.544;2023-11-22T06:24:43;3.40;;;3.07;;
14096;SDS011;7125;48.106;11.544;2023-11-22T06:27:09;3.33;;;2.67;;
14096;SDS011;7125;48.106;11.544;2023-11-22T06:29:36;2.63;;;2.43;;
14096;SDS011;7125;48.106;11.544;2023-11-22T06:32:04;3.87;;;3.33;;
14096;SDS011;7125;48.106;11.544;2023-11-22T06:34:31;4.57;;;3.77;;
14096;SDS011;7125;48.106;11.544;2023-11-22T06:36:58;3.13;;;2.90;;
14096;SDS011;7125;48.106;11.544;2023-11-22T06:39:25;6.87;;;3.87;;
14096;SDS011;7125;48.106;11.544;2023-11-22T06:41:53;5.20;;;3.57;;
14096;SDS011;7125;48.106;11.544;2023-11-22T06:44:20;4.63;;;3.70;;
14096;SDS011;7125;48.106;11.544;2023-11-22T06:46:48;6.90;;;4.97;;
14096;SDS011;7125;48.106;11.544;2023-11-22T06:49:15;7.50;;;6.13;;
14096;SDS011;7125;48.106;11.544;2023-11-22T06:51:42;7.80;;;5.40;;
14096;SDS011;7125;48.106;11.544;2023-11-22T06:54:08;7.60;;;6.40;;
14096;SDS011;7125;48.106;11.544;2023-11-22T06:56:35;7.80;;;4.97;;
14096;SDS011;7125;48.106;11.544;2023-11-22T06:59:04;7.33;;;4.97;;
14096;SDS011;7125;48.106;11.544;2023-11-22T07:01:31;6.77;;;5.23;;
14096;SDS011;7125;48.106;11.544;2023-11-22T07:03:58;9.70;;;7.43;;
14096;SDS011;7125;48.106;11.544;2023-11-22T07:06:26;10.90;;;6.30;;
14096;SDS011;7125;48.106;11.544;2023-11-22T07:08:53;6.87;;;5.13;;
14096;SDS011;7125;48.106;11.544;2023-11-22T07:11:23;10.33;;;5.67;;
14096;SDS011;7125;48.106;11.544;2023-11-22T07:13:50;7.50;;;6.63;;
14096;SDS011;7125;48.106;11.544;2023-11-22T07:16:19;6.63;;;4.87;;
14096;SDS011;7125;48.106;11.544;2023-11-22T07:18:46;6.67;;;5.53;;
14096;SDS011;7125;48.106;11.544;2023-11-22T07:21:13;8.67;;;5.30;;
14096;SDS011;7125;48.106;11.544;2023-11-22T07:23:41;7.37;;;4.93;;
14096;SDS011;7125;48.106;11.544;2023-11-22T07:26:09;5.73;;;5.07;;
14096;SDS011;7125;48.106;11.544;2023-11-22T07:28:35;7.10;;;5.70;;
14096;SDS011;7125;48.106;11.544;2023-11-22T07:31:03;7.43;;;4.80;;
14096;SDS011;7125;48.106;11.544;2023-11-22T07:33:32;5.87;;;5.27;;
14096;SDS011;7125;48.106;11.544;2023-11-22T07:35:59;6.13;;;5.33;;
14096;SDS011;7125;48.106;11.544;2023-11-22T07:38:28;7.97;;;5.37;;
14096;SDS011;7125;48.106;11.544;2023-11-22T07:40:56;6.07;;;5.20;;
14096;SDS011;7125;48.106;11.544;2023-11-22T07:43:24;5.67;;;4.90;;
14096;SDS011;7125;48.106;11.544;2023-11-22T07:45:54;9.13;;;6.03;;
14096;SDS011;7125;48.106;11.544;2023-11-22T07:48:22;8.90;;;6.77;;
14096;SDS011;7125;48.106;11.544;2023-11-22T07:50:51;7.13;;;6.33;;
14096;SDS011;7125;48.106;11.544;2023-11-22T07:53:19;6.67;;;5.33;;
14096;SDS011;7125;48.106;11.544;2023-11-22T07:55:46;8.47;;;5.57;;
14096;SDS011;7125;48.106;11.544;2023-11-22T07:58:13;6.30;;;5.33;;
14096;SDS011;7125;48.106;11.544;2023-11-22T08:00:41;6.70;;;4.67;;
14096;SDS011;7125;48.106;11.544;2023-11-22T08:03:08;5.20;;;4.70;;
14096;SDS011;7125;48.106;11.544;2023-11-22T08:05:34;8.10;;;5.77;;
14096;SDS011;7125;48.106;11.544;2023-11-22T08:08:06;7.53;;;5.70;;
14096;SDS011;7125;48.106;11.544;2023-11-22T08:10:34;18.13;;;10.90;;
14096;SDS011;7125;48.106;11.544;2023-11-22T08:13:01;17.50;;;12.60;;
14096;SDS011;7125;48.106;11.544;2023-11-22T08:15:29;13.57;;;8.47;;
14096;SDS011;7125;48.106;11.544;2023-11-22T08:17:57;7.23;;;5.20;;
14096;SDS011;7125;48.106;11.544;2023-11-22T08:20:25;7.70;;;5.43;;
14096;SDS011;7125;48.106;11.544;2023-11-22T08:22:52;5.97;;;5.00;;
14096;SDS011;7125;48.106;11.544;2023-11-22T08:25:20;7.00;;;6.27;;
14096;SDS011;7125;48.106;11.544;2023-11-22T08:27:47;8.97;;;6.83;;
14096;SDS011;7125;48.106;11.544;2023-11-22T08:30:15;9.90;;;7.83;;
14096;SDS011;7125;48.106;11.544;2023-11-22T08:32:43;8.43;;;5.63;;
14096;SDS011;7125;48.106;11.544;2023-11-22T08:35:13;7.33;;;6.00;;
14096;SDS011;7125;48.106;11.544;2023-11-22T08:37:40;7.10;;;5.80;;
14096;SDS011;7125;48.106;11.544;2023-11-22T08:40:08;8.53;;;6.53;;
14096;SDS011;7125;48.106;11.544;2023-11-22T08:42:40;6.50;;;5.23;;
14096;SDS011;7125;48.106;11.544;2023-11-22T08:45:09;7.83;;;5.43;;
14096;SDS011;7125;48.106;11.544;2023-11-22T08:47:37;8.77;;;6.20;;
14096;SDS011;7125;48.106;11.544;2023-11-22T08:50:05;8.67;;;6.40;;
14096;SDS011;7125;48.106;11.544;2023-11-22T08:52:33;7.27;;;5.90;;
14096;SDS011;7125;48.106;11.544;2023-11-22T08:55:02;9.30;;;7.60;;
14096;SDS011;7125;48.106;11.544;2023-11-22T08:57:31;10.40;;;6.20;;
14096;SDS011;7125;48.106;11.544;2023-11-22T09:00:01;8.53;;;5.73;;
14096;SDS011;7125;48.106;11.544;2023-11-22T09:02:34;9.23;;;6.63;;
14096;SDS011;7125;48.106;11.544;2023-11-22T09:05:02;7.20;;;5.57;;
14096;SDS011;7125;48.106;11.544;2023-11-22T09:07:33;7.87;;;5.17;;
14096;SDS011;7125;48.106;11.544;2023-11-22T09:10:00;7.30;;;6.23;;
14096;SDS011;7125;48.106;11.544;2023-11-22T09:12:34;6.43;;;4.97;;
14096;SDS011;7125;48.106;11.544;2023-11-22T09:15:04;6.53;;;5.07;;
14096;SDS011;7125;48.106;11.544;2023-11-22T09:17:34;8.93;;;7.17;;
14096;SDS011;7125;48.106;11.544;2023-11-22T09:20:02;9.37;;;7.37;;
14096;SDS011;7125;48.106;11.544;2023-11-22T09:22:31;9.77;;;6.83;;
14096;SDS011;7125;48.106;11.544;2023-11-22T09:24:58;7.33;;;6.40;;
14096;SDS011;7125;48.106;11.544;2023-11-22T09:27:26;7.30;;;6.57;;
14096;SDS011;7125;48.106;11.544;2023-11-22T09:29:53;6.80;;;6.00;;
14096;SDS011;7125;48.106;11.544;2023-11-22T09:32:22;7.93;;;6.63;;
14096;SDS011;7125;48.106;11.544;2023-11-22T09:34:49;7.33;;;6.03;;
14096;SDS011;7125;48.106;11.544;2023-11-22T09:37:20;6.10;;;5.47;;
14096;SDS011;7125;48.106;11.544;2023-11-22T09:39:47;7.70;;;5.83;;
14096;SDS011;7125;48.106;11.544;2023-11-22T09:42:15;6.53;;;5.63;;
14096;SDS011;7125;48.106;11.544;2023-11-22T09:44:42;13.17;;;6.20;;
14096;SDS011;7125;48.106;11.544;2023-11-22T09:47:09;5.93;;;5.03;;
14096;SDS011;7125;48.106;11.544;2023-11-22T09:49:38;6.90;;;5.77;;
14096;SDS011;7125;48.106;11.544;2023-11-22T09:52:09;8.67;;;6.93;;
14096;SDS011;7125;48.106;11.544;2023-11-22T09:54:41;6.97;;;5.00;;
14096;SDS011;7125;48.106;11.544;2023-11-22T09:57:09;6.07;;;4.63;;
14096;SDS011;7125;48.106;11.544;2023-11-22T09:59:37;5.83;;;4.97;;
14096;SDS011;7125;48.106;11.544;2023-11-22T10:02:07;6.53;;;5.10;;
14096;SDS011;7125;48.106;11.544;2023-11-22T10:04:48;6.27;;;4.87;;
14096;SDS011;7125;48.106;11.544;2023-11-22T10:07:17;5.27;;;4.70;;
14096;SDS011;7125;48.106;11.544;2023-11-22T10:09:47;7.60;;;5.37;;
14096;SDS011;7125;48.106;11.544;2023-11-22T10:12:18;5.07;;;4.60;;
14096;SDS011;7125;48.106;11.544;2023-11-22T10:14:47;5.97;;;4.80;;
14096;SDS011;7125;48.106;11.544;2023-11-22T10:17:14;5.53;;;4.50;;
14096;SDS011;7125;48.106;11.544;2023-11-22T10:19:46;5.47;;;4.97;;
14096;SDS011;7125;48.106;11.544;2023-11-22T10:22:12;5.00;;;4.43;;
14096;SDS011;7125;48.106;11.544;2023-11-22T10:24:42;6.33;;;4.57;;
14096;SDS011;7125;48.106;11.544;2023-11-22T10:27:12;4.63;;;4.17;;
14096;SDS011;7125;48.106;11.544;2023-11-22T10:29:38;4.97;;;4.47;;
14096;SDS011;7125;48.106;11.544;2023-11-22T10:32:06;5.73;;;4.30;;
14096;SDS011;7125;48.106;11.544;2023-11-22T10:34:33;5.27;;;4.77;;
14096;SDS011;7125;48.106;11.544;2023-11-22T10:37:03;5.03;;;4.13;;
14096;SDS011;7125;48.106;11.544;2023-11-22T10:39:30;9.83;;;4.80;;
14096;SDS011;7125;48.106;11.544;2023-11-22T10:41:58;6.03;;;5.37;;
14096;SDS011;7125;48.106;11.544;2023-11-22T10:44:25;9.43;;;4.17;;
14096;SDS011;7125;48.106;11.544;2023-11-22T10:46:53;8.77;;;5.37;;
14096;SDS011;7125;48.106;11.544;2023-11-22T10:49:20;7.17;;;4.03;;
14096;SDS011;7125;48.106;11.544;2023-11-22T10:51:49;10.03;;;4.90;;
14096;SDS011;7125;48.106;11.544;2023-11-22T10:54:20;6.27;;;5.03;;
14096;SDS011;7125;48.106;11.544;2023-11-22T10:56:51;4.97;;;3.83;;
14096;SDS011;7125;48.106;11.544;2023-11-22T10:59:22;4.57;;;4.17;;
14096;SDS011;7125;48.106;11.544;2023-11-22T11:01:53;4.63;;;4.23;;
14096;SDS011;7125;48.106;11.544;2023-11-22T11:04:24;4.87;;;4.37;;
14096;SDS011;7125;48.106;11.544;2023-11-22T11:06:58;4.70;;;4.23;;
14096;SDS011;7125;48.106;11.544;2023-11-22T11:09:27;5.37;;;4.17;;
14096;SDS011;7125;48.106;11.544;2023-11-22T11:11:58;4.67;;;4.27;;
14096;SDS011;7125;48.106;11.544;2023-11-22T11:14:25;4.37;;;3.97;;
14096;SDS011;7125;48.106;11.544;2023-11-22T11:16:54;3.83;;;3.53;;
14096;SDS011;7125;48.106;11.544;2023-11-22T11:19:24;4.80;;;3.97;;
14096;SDS011;7125;48.106;11.544;2023-11-22T11:21:52;4.77;;;3.63;;
14096;SDS011;7125;48.106;11.544;2023-11-22T11:24:22;7.83;;;4.37;;
14096;SDS011;7125;48.106;11.544;2023-11-22T11:26:50;4.37;;;3.47;;
14096;SDS011;7125;48.106;11.544;2023-11-22T11:29:30;4.47;;;3.67;;
14096;SDS011;7125;48.106;11.544;2023-11-22T11:31:58;3.93;;;3.53;;
14096;SDS011;7125;48.106;11.544;2023-11-22T11:34:26;4.47;;;3.60;;
14096;SDS011;7125;48.106;11.544;2023-11-22T11:36:54;3.83;;;3.17;;
14096;SDS011;7125;48.106;11.544;2023-11-22T11:39:24;6.37;;;3.83;;
14096;SDS011;7125;48.106;11.544;2023-11-22T11:42:08;4.63;;;4.03;;
14096;SDS011;7125;48.106;11.544;2023-11-22T11:44:36;3.80;;;3.10;;
14096;SDS011;7125;48.106;11.544;2023-11-22T11:47:08;4.60;;;3.60;;
14096;SDS011;7125;48.106;11.544;2023-11-22T11:49:36;4.77;;;3.93;;
14096;SDS011;7125;48.106;11.544;2023-11-22T11:52:04;4.00;;;3.60;;
14096;SDS011;7125;48.106;11.544;2023-11-22T11:54:32;5.27;;;3.83;;
14096;SDS011;7125;48.106;11.544;2023-11-22T11:57:00;3.73;;;3.23;;
14096;SDS011;7125;48.106;11.544;2023-11-22T11:59:28;3.90;;;3.10;;
14096;SDS011;7125;48.106;11.544;2023-11-22T12:01:59;2.73;;;2.53;;
14096;SDS011;7125;48.106;11.544;2023-11-22T12:04:26;3.33;;;3.03;;
14096;SDS011;7125;48.106;11.544;2023-11-22T12:06:53;3.27;;;2.33;;
14096;SDS011;7125;48.106;11.544;2023-11-22T12:09:24;3.27;;;2.97;;
14096;SDS011;7125;48.106;11.544;2023-11-22T12:11:51;3.00;;;2.70;;
14096;SDS011;7125;48.106;11.544;2023-11-22T12:14:19;4.90;;;3.70;;
14096;SDS011;7125;48.106;11.544;2023-11-22T12:16:49;3.97;;;3.53;;
14096;SDS011;7125;48.106;11.544;2023-11-22T12:19:21;3.43;;;3.13;;
14096;SDS011;7125;48.106;11.544;2023-11-22T12:21:48;4.30;;;3.03;;
14096;SDS011;7125;48.106;11.544;2023-11-22T12:24:16;4.10;;;3.70;;
14096;SDS011;7125;48.106;11.544;2023-11-22T12:26:44;8.47;;;3.87;;
14096;SDS011;7125;48.106;11.544;2023-11-22T12:29:11;3.57;;;3.20;;
14096;SDS011;7125;48.106;11.544;2023-11-22T12:31:43;3.37;;;3.00;;
14096;SDS011;7125;48.106;11.544;2023-11-22T12:34:13;3.97;;;3.20;;
14096;SDS011;7125;48.106;11.544;2023-11-22T12:36:41;3.13;;;2.83;;
14096;SDS011;7125;48.106;11.544;2023-11-22T12:39:08;3.47;;;3.17;;
14096;SDS011;7125;48.106;11.544;2023-11-22T12:41:42;4.30;;;3.57;;
14096;SDS011;7125;48.106;11.544;2023-11-22T12:44:10;3.77;;;3.43;;
14096;SDS011;7125;48.106;11.544;2023-11-22T12:46:47;4.67;;;3.13;;
14096;SDS011;7125;48.106;11.544;2023-11-22T12:49:19;3.53;;;3.23;;
14096;SDS011;7125;48.106;11.544;2023-11-22T12:51:48;3.23;;;2.93;;
14096;SDS011;7125;48.106;11.544;2023-11-22T12:54:15;3.13;;;2.83;;
14096;SDS011;7125;48.106;11.544;2023-11-22T12:56:45;3.17;;;2.73;;
14096;SDS011;7125;48.106;11.544;2023-11-22T12:59:14;4.87;;;2.80;;
14096;SDS011;7125;48.106;11.544;2023-11-22T13:01:41;4.23;;;3.23;;
14096;SDS011;7125;48.106;11.544;2023-11-22T13:04:08;3.00;;;2.80;;
14096;SDS011;7125;48.106;11.544;2023-11-22T13:06:38;5.20;;;3.23;;
14096;SDS011;7125;48.106;11.544;2023-11-22T13:09:05;6.67;;;3.60;;
14096;SDS011;7125;48.106;11.544;2023-11-22T13:11:32;3.63;;;2.70;;
14096;SDS011;7125;48.106;11.544;2023-11-22T13:13:59;3.20;;;2.90;;
14096;SDS011;7125;48.106;11.544;2023-11-22T13:16:26;3.23;;;2.63;;
14096;SDS011;7125;48.106;11.544;2023-11-22T13:18:53;3.20;;;2.90;;
14096;SDS011;7125;48.106;11.544;2023-11-22T13:21:21;3.33;;;3.03;;
14096;SDS011;7125;48.106;11.544;2023-11-22T13:23:50;2.83;;;2.53;;
14096;SDS011;7125;48.106;11.544;2023-11-22T13:26:17;3.23;;;2.93;;
14096;SDS011;7125;48.106;11.544;2023-11-22T13:28:44;4.77;;;3.70;;
14096;SDS011;7125;48.106;11.544;2023-11-22T13:31:11;3.83;;;3.07;;
14096;SDS011;7125;48.106;11.544;2023-11-22T13:33:39;3.47;;;2.73;;
14096;SDS011;7125;48.106;11.544;2023-11-22T13:36:09;3.37;;;3.07;;
14096;SDS011;7125;48.106;11.544;2023-11-22T13:38:39;4.27;;;3.23;;
14096;SDS011;7125;48.106;11.544;2023-11-22T13:41:08;4.13;;;3.50;;
14096;SDS011;7125;48.106;11.544;2023-11-22T13:43:35;5.40;;;3.37;;
14096;SDS011;7125;48.106;11.544;2023-11-22T13:46:02;7.40;;;4.00;;
14096;SDS011;7125;48.106;11.544;2023-11-22T13:48:30;3.27;;;2.97;;
14096;SDS011;7125;48.106;11.544;2023-11-22T13:50:57;4.07;;;3.67;;
14096;SDS011;7125;48.106;11.544;2023-11-22T13:53:25;3.03;;;2.73;;
14096;SDS011;7125;48.106;11.544;2023-11-22T13:55:55;3.70;;;3.37;;
14096;SDS011;7125;48.106;11.544;2023-11-22T13:58:25;3.27;;;2.93;;
14096;SDS011;7125;48.106;11.544;2023-11-22T14:00:52;3.67;;;2.63;;
14096;SDS011;7125;48.106;11.544;2023-11-22T14:03:19;2.70;;;2.43;;
14096;SDS011;7125;48.106;11.544;2023-11-22T14:05:47;3.57;;;2.57;;
14096;SDS011;7125;48.106;11.544;2023-11-22T14:08:14;3.63;;;2.80;;
14096;SDS011;7125;48.106;11.544;2023-11-22T14:10:41;2.30;;;2.10;;
14096;SDS011;7125;48.106;11.544;2023-11-22T14:13:10;3.17;;;2.53;;
14096;SDS011;7125;48.106;11.544;2023-11-22T14:15:38;4.47;;;3.30;;
14096;SDS011;7125;48.106;11.544;2023-11-22T14:18:05;4.07;;;2.87;;
14096;SDS011;7125;48.106;11.544;2023-11-22T14:20:32;4.40;;;3.33;;
14096;SDS011;7125;48.106;11.544;2023-11-22T14:23:00;2.90;;;2.60;;
14096;SDS011;7125;48.106;11.544;2023-11-22T14:25:27;3.77;;;2.93;;
14096;SDS011;7125;48.106;11.544;2023-11-22T14:27:54;4.03;;;2.57;;
14096;SDS011;7125;48.106;11.544;2023-11-22T14:30:22;2.90;;;2.60;;
14096;SDS011;7125;48.106;11.544;2023-11-22T14:32:53;6.90;;;4.53;;
14096;SDS011;7125;48.106;11.544;2023-11-22T14:35:20;3.87;;;3.27;;
14096;SDS011;7125;48.106;11.544;2023-11-22T14:37:48;4.00;;;3.43;;
14096;SDS011;7125;48.106;11.544;2023-11-22T14:40:15;4.60;;;3.40;;
14096;SDS011;7125;48.106;11.544;2023-11-22T14:42:45;3.57;;;3.20;;
14096;SDS011;7125;48.106;11.544;2023-11-22T14:45:14;3.40;;;3.10;;
14096;SDS011;7125;48.106;11.544;2023-11-22T14:47:41;3.43;;;3.10;;
14096;SDS011;7125;48.106;11.544;2023-11-22T14:50:12;3.57;;;3.27;;